Pure Adrenalin — VJD3680 — position and weather

sailwx.info

Track history (hours):
 
Tides and Currents Weather Stations Pressure Air Temp Water Temp Dewpoint Dewpoint Depression Visibility Wind Speed Wind Dir Waves Ship Positions

Pure Adrenalin

Last reported at 2017-Feb-04 10:15 UTC. Time now 2017-Dec-14 15:11 UTC.
Position S 20°35' E 117°19'.
Warning: this ship's position is months out of date.

Length 21 m.

Type: Ship. MMSI: 503642100.

Date/timePositionNaut miles runAvg speedWind from/ knotsBaromVisibWave heightAir tempDewpointWater temp
2017-Feb-04 10:15S 20°35' E 117°19'7 7.7
2017-Feb-04 09:18S 20°38' E 117°12'0 0.0
2017-Feb-04 08:30S 20°38' E 117°12'0 0.0
2017-Feb-04 07:28S 20°38' E 117°12'0 0.0
2017-Feb-04 06:22S 20°38' E 117°12'0 0.1
2017-Feb-04 05:11S 20°38' E 117°12'0 0.0
2017-Feb-04 04:29S 20°38' E 117°12'0 0.0
2017-Feb-04 03:17S 20°38' E 117°12'0 0.0
2017-Feb-04 00:23S 20°38' E 117°12'0 0.0
2017-Feb-03 23:29S 20°38' E 117°12'0 0.0
2017-Feb-03 22:29S 20°38' E 117°12'0 0.0
2017-Feb-03 20:29S 20°38' E 117°12'0 0.0
2017-Feb-03 19:03S 20°38' E 117°12'0 0.1
2017-Feb-03 18:28S 20°38' E 117°12'0 0.0
2017-Feb-03 17:16S 20°38' E 117°12'0 0.0
2017-Feb-03 16:22S 20°38' E 117°12'0 0.0
2017-Feb-03 15:04S 20°38' E 117°12'0 0.0
2017-Feb-03 13:28S 20°38' E 117°12'0 0.0
2017-Feb-03 12:28S 20°38' E 117°12'0 0.0
2017-Feb-03 11:10S 20°38' E 117°12'0 0.7
2017-Feb-03 10:33S 20°38' E 117°12'0 0.2
2017-Feb-03 07:31S 20°38' E 117°12'1 0.3
2017-Feb-03 04:04S 20°38' E 117°12'0 0.0
2017-Feb-03 02:10S 20°38' E 117°12'0 0.0
2017-Feb-03 00:10S 20°38' E 117°12'0 0.0
2017-Feb-02 23:22S 20°38' E 117°12'0 0.0
2017-Feb-02 22:22S 20°38' E 117°12'0 0.0
2017-Feb-02 19:28S 20°38' E 117°12'0 0.0
2017-Feb-02 18:16S 20°38' E 117°12'1 1.3
2017-Feb-02 17:26S 20°38' E 117°13'0 0.0
2017-Feb-02 16:08S 20°38' E 117°13'0 0.0
2017-Feb-02 13:19S 20°38' E 117°13'0 0.0
2017-Feb-02 12:19S 20°38' E 117°13'2 1.2
2017-Feb-02 10:29S 20°36' E 117°13'  
Track history (hours):
 
Tides and Currents Weather Stations Pressure Air Temp Water Temp Dewpoint Dewpoint Depression Visibility Wind Speed Wind Dir Waves Ship Positions

Pure Adrenalin

Last reported at 2017-Feb-04 10:15 UTC. Time now 2017-Dec-14 15:11 UTC.
Position S 20°35' E 117°19'.
Warning: this ship's position is months out of date.

Length 21 m.

Type: Ship. MMSI: 503642100.

Date/timePositionNaut miles runAvg speedWind from/ knotsBaromVisibWave heightAir tempDewpointWater temp
2017-Feb-04 10:15S 20°35' E 117°19'7 7.7
2017-Feb-04 09:18S 20°38' E 117°12'0 0.0
2017-Feb-04 08:30S 20°38' E 117°12'0 0.0
2017-Feb-04 07:28S 20°38' E 117°12'0 0.0
2017-Feb-04 06:22S 20°38' E 117°12'0 0.1
2017-Feb-04 05:11S 20°38' E 117°12'0 0.0
2017-Feb-04 04:29S 20°38' E 117°12'0 0.0
2017-Feb-04 03:17S 20°38' E 117°12'0 0.0
2017-Feb-04 00:23S 20°38' E 117°12'0 0.0
2017-Feb-03 23:29S 20°38' E 117°12'0 0.0
2017-Feb-03 22:29S 20°38' E 117°12'0 0.0
2017-Feb-03 20:29S 20°38' E 117°12'0 0.0
2017-Feb-03 19:03S 20°38' E 117°12'0 0.1
2017-Feb-03 18:28S 20°38' E 117°12'0 0.0
2017-Feb-03 17:16S 20°38' E 117°12'0 0.0
2017-Feb-03 16:22S 20°38' E 117°12'0 0.0
2017-Feb-03 15:04S 20°38' E 117°12'0 0.0
2017-Feb-03 13:28S 20°38' E 117°12'0 0.0
2017-Feb-03 12:28S 20°38' E 117°12'0 0.0
2017-Feb-03 11:10S 20°38' E 117°12'0 0.7
2017-Feb-03 10:33S 20°38' E 117°12'0 0.2
2017-Feb-03 07:31S 20°38' E 117°12'1 0.3
2017-Feb-03 04:04S 20°38' E 117°12'0 0.0
2017-Feb-03 02:10S 20°38' E 117°12'0 0.0
2017-Feb-03 00:10S 20°38' E 117°12'0 0.0
2017-Feb-02 23:22S 20°38' E 117°12'0 0.0
2017-Feb-02 22:22S 20°38' E 117°12'0 0.0
2017-Feb-02 19:28S 20°38' E 117°12'0 0.0
2017-Feb-02 18:16S 20°38' E 117°12'1 1.3
2017-Feb-02 17:26S 20°38' E 117°13'0 0.0
2017-Feb-02 16:08S 20°38' E 117°13'0 0.0
2017-Feb-02 13:19S 20°38' E 117°13'0 0.0
2017-Feb-02 12:19S 20°38' E 117°13'2 1.2
2017-Feb-02 10:29S 20°36' E 117°13'  

Dump ship's entire track history